sensor_id;sensor_type;location;lat;lon;timestamp;P1;durP1;ratioP1;P2;durP2;ratioP2
37903;SDS011;23738;50.422;18.758;2023-01-04T00:00:23;78.30;;;38.43;;
37903;SDS011;23738;50.422;18.758;2023-01-04T00:02:49;83.57;;;40.10;;
37903;SDS011;23738;50.422;18.758;2023-01-04T00:05:14;80.70;;;40.93;;
37903;SDS011;23738;50.422;18.758;2023-01-04T00:07:40;79.33;;;37.17;;
37903;SDS011;23738;50.422;18.758;2023-01-04T00:10:06;87.30;;;40.77;;
37903;SDS011;23738;50.422;18.758;2023-01-04T00:12:33;76.57;;;38.00;;
37903;SDS011;23738;50.422;18.758;2023-01-04T00:15:00;75.07;;;38.00;;
37903;SDS011;23738;50.422;18.758;2023-01-04T00:17:26;81.83;;;37.53;;
37903;SDS011;23738;50.422;18.758;2023-01-04T00:19:52;71.43;;;35.87;;
37903;SDS011;23738;50.422;18.758;2023-01-04T00:22:18;85.67;;;39.73;;
37903;SDS011;23738;50.422;18.758;2023-01-04T00:24:44;94.80;;;41.03;;
37903;SDS011;23738;50.422;18.758;2023-01-04T00:27:10;98.40;;;44.60;;
37903;SDS011;23738;50.422;18.758;2023-01-04T00:29:35;113.47;;;47.97;;
37903;SDS011;23738;50.422;18.758;2023-01-04T00:32:01;95.87;;;43.27;;
37903;SDS011;23738;50.422;18.758;2023-01-04T00:34:27;89.90;;;41.20;;
37903;SDS011;23738;50.422;18.758;2023-01-04T00:36:53;104.77;;;47.03;;
37903;SDS011;23738;50.422;18.758;2023-01-04T00:39:19;96.03;;;43.97;;
37903;SDS011;23738;50.422;18.758;2023-01-04T00:41:46;108.43;;;50.97;;
37903;SDS011;23738;50.422;18.758;2023-01-04T00:44:15;111.37;;;53.83;;
37903;SDS011;23738;50.422;18.758;2023-01-04T00:46:42;103.47;;;47.03;;
37903;SDS011;23738;50.422;18.758;2023-01-04T00:49:09;101.33;;;45.37;;
37903;SDS011;23738;50.422;18.758;2023-01-04T00:51:36;104.97;;;47.53;;
37903;SDS011;23738;50.422;18.758;2023-01-04T00:54:05;107.77;;;48.27;;
37903;SDS011;23738;50.422;18.758;2023-01-04T00:56:33;116.60;;;53.53;;
37903;SDS011;23738;50.422;18.758;2023-01-04T00:59:00;132.43;;;59.77;;
37903;SDS011;23738;50.422;18.758;2023-01-04T01:01:28;136.23;;;58.80;;
37903;SDS011;23738;50.422;18.758;2023-01-04T01:03:57;144.23;;;60.87;;
37903;SDS011;23738;50.422;18.758;2023-01-04T01:06:26;134.17;;;56.43;;
37903;SDS011;23738;50.422;18.758;2023-01-04T01:08:54;142.83;;;61.27;;
37903;SDS011;23738;50.422;18.758;2023-01-04T01:11:21;137.07;;;61.20;;
37903;SDS011;23738;50.422;18.758;2023-01-04T01:13:46;147.90;;;66.67;;
37903;SDS011;23738;50.422;18.758;2023-01-04T01:16:13;144.33;;;66.93;;
37903;SDS011;23738;50.422;18.758;2023-01-04T01:18:42;131.70;;;57.27;;
37903;SDS011;23738;50.422;18.758;2023-01-04T01:21:18;124.93;;;53.93;;
37903;SDS011;23738;50.422;18.758;2023-01-04T01:23:43;129.07;;;60.17;;
37903;SDS011;23738;50.422;18.758;2023-01-04T01:26:11;137.27;;;59.83;;
37903;SDS011;23738;50.422;18.758;2023-01-04T01:28:40;133.60;;;60.30;;
37903;SDS011;23738;50.422;18.758;2023-01-04T01:31:07;128.77;;;61.40;;
37903;SDS011;23738;50.422;18.758;2023-01-04T01:33:38;127.30;;;60.27;;
37903;SDS011;23738;50.422;18.758;2023-01-04T01:36:06;132.97;;;55.00;;
37903;SDS011;23738;50.422;18.758;2023-01-04T01:38:33;125.00;;;52.03;;
37903;SDS011;23738;50.422;18.758;2023-01-04T01:41:00;122.23;;;54.10;;
37903;SDS011;23738;50.422;18.758;2023-01-04T01:43:46;124.63;;;55.83;;
37903;SDS011;23738;50.422;18.758;2023-01-04T01:46:23;138.40;;;62.67;;
37903;SDS011;23738;50.422;18.758;2023-01-04T01:48:54;122.67;;;59.73;;
37903;SDS011;23738;50.422;18.758;2023-01-04T01:51:26;120.63;;;53.77;;
37903;SDS011;23738;50.422;18.758;2023-01-04T01:53:56;112.83;;;51.27;;
37903;SDS011;23738;50.422;18.758;2023-01-04T01:56:29;128.63;;;55.93;;
37903;SDS011;23738;50.422;18.758;2023-01-04T01:58:57;123.13;;;55.53;;
37903;SDS011;23738;50.422;18.758;2023-01-04T02:01:25;123.30;;;57.17;;
37903;SDS011;23738;50.422;18.758;2023-01-04T02:03:52;126.73;;;57.50;;
37903;SDS011;23738;50.422;18.758;2023-01-04T02:06:24;122.33;;;53.83;;
37903;SDS011;23738;50.422;18.758;2023-01-04T02:08:54;137.50;;;57.87;;
37903;SDS011;23738;50.422;18.758;2023-01-04T02:11:20;165.33;;;68.43;;
37903;SDS011;23738;50.422;18.758;2023-01-04T02:13:46;155.20;;;64.00;;
37903;SDS011;23738;50.422;18.758;2023-01-04T02:22:14;110.23;;;49.43;;
37903;SDS011;23738;50.422;18.758;2023-01-04T02:47:20;119.77;;;52.83;;
37903;SDS011;23738;50.422;18.758;2023-01-04T02:50:21;115.47;;;47.87;;
37903;SDS011;23738;50.422;18.758;2023-01-04T02:55:38;109.63;;;48.73;;
37903;SDS011;23738;50.422;18.758;2023-01-04T03:07:35;108.57;;;46.73;;
37903;SDS011;23738;50.422;18.758;2023-01-04T03:13:16;112.27;;;51.27;;
37903;SDS011;23738;50.422;18.758;2023-01-04T03:16:07;125.22;;;56.55;;
37903;SDS011;23738;50.422;18.758;2023-01-04T03:18:39;115.13;;;49.73;;
37903;SDS011;23738;50.422;18.758;2023-01-04T03:21:12;105.87;;;48.67;;
37903;SDS011;23738;50.422;18.758;2023-01-04T03:23:40;131.17;;;54.53;;
37903;SDS011;23738;50.422;18.758;2023-01-04T03:26:32;134.33;;;57.70;;
37903;SDS011;23738;50.422;18.758;2023-01-04T03:29:23;131.57;;;57.40;;
37903;SDS011;23738;50.422;18.758;2023-01-04T03:32:17;128.80;;;54.77;;
37903;SDS011;23738;50.422;18.758;2023-01-04T03:35:15;131.40;;;59.67;;
37903;SDS011;23738;50.422;18.758;2023-01-04T03:37:55;134.87;;;58.40;;
37903;SDS011;23738;50.422;18.758;2023-01-04T03:41:02;120.37;;;55.13;;
37903;SDS011;23738;50.422;18.758;2023-01-04T03:47:09;136.87;;;57.23;;
37903;SDS011;23738;50.422;18.758;2023-01-04T03:49:59;118.27;;;55.17;;
37903;SDS011;23738;50.422;18.758;2023-01-04T03:52:31;132.47;;;55.80;;
37903;SDS011;23738;50.422;18.758;2023-01-04T03:54:59;139.00;;;56.40;;
37903;SDS011;23738;50.422;18.758;2023-01-04T03:57:26;130.33;;;56.50;;
37903;SDS011;23738;50.422;18.758;2023-01-04T03:59:54;124.83;;;55.07;;
37903;SDS011;23738;50.422;18.758;2023-01-04T04:02:34;137.20;;;58.37;;
37903;SDS011;23738;50.422;18.758;2023-01-04T04:05:00;141.67;;;60.23;;
37903;SDS011;23738;50.422;18.758;2023-01-04T04:07:45;143.47;;;59.60;;
37903;SDS011;23738;50.422;18.758;2023-01-04T04:10:29;142.23;;;58.83;;
37903;SDS011;23738;50.422;18.758;2023-01-04T04:12:55;127.13;;;54.83;;
37903;SDS011;23738;50.422;18.758;2023-01-04T04:15:20;146.50;;;62.80;;
37903;SDS011;23738;50.422;18.758;2023-01-04T04:17:46;150.40;;;63.73;;
37903;SDS011;23738;50.422;18.758;2023-01-04T04:20:12;144.43;;;65.93;;
37903;SDS011;23738;50.422;18.758;2023-01-04T04:22:38;143.40;;;58.93;;
37903;SDS011;23738;50.422;18.758;2023-01-04T04:25:04;133.87;;;54.17;;
37903;SDS011;23738;50.422;18.758;2023-01-04T04:27:31;145.63;;;61.67;;
37903;SDS011;23738;50.422;18.758;2023-01-04T04:29:57;141.13;;;60.87;;
37903;SDS011;23738;50.422;18.758;2023-01-04T04:32:22;138.67;;;62.57;;
37903;SDS011;23738;50.422;18.758;2023-01-04T04:34:48;146.00;;;58.93;;
37903;SDS011;23738;50.422;18.758;2023-01-04T04:37:14;137.93;;;61.47;;
37903;SDS011;23738;50.422;18.758;2023-01-04T04:39:40;124.37;;;54.83;;
37903;SDS011;23738;50.422;18.758;2023-01-04T04:42:05;138.47;;;63.20;;
37903;SDS011;23738;50.422;18.758;2023-01-04T04:44:32;142.80;;;64.33;;
37903;SDS011;23738;50.422;18.758;2023-01-04T04:46:59;141.63;;;56.93;;
37903;SDS011;23738;50.422;18.758;2023-01-04T04:49:25;133.80;;;56.20;;
37903;SDS011;23738;50.422;18.758;2023-01-04T04:51:50;136.80;;;56.07;;
37903;SDS011;23738;50.422;18.758;2023-01-04T04:54:17;137.20;;;61.03;;
37903;SDS011;23738;50.422;18.758;2023-01-04T04:56:45;142.50;;;63.77;;
37903;SDS011;23738;50.422;18.758;2023-01-04T04:59:12;130.27;;;56.03;;
37903;SDS011;23738;50.422;18.758;2023-01-04T05:01:38;122.53;;;53.37;;
37903;SDS011;23738;50.422;18.758;2023-01-04T05:04:04;132.23;;;56.73;;
37903;SDS011;23738;50.422;18.758;2023-01-04T05:06:30;132.70;;;58.93;;
37903;SDS011;23738;50.422;18.758;2023-01-04T05:08:56;130.20;;;60.23;;
37903;SDS011;23738;50.422;18.758;2023-01-04T05:11:22;125.90;;;55.77;;
37903;SDS011;23738;50.422;18.758;2023-01-04T05:14:06;126.33;;;51.43;;
37903;SDS011;23738;50.422;18.758;2023-01-04T05:16:34;123.93;;;53.90;;
37903;SDS011;23738;50.422;18.758;2023-01-04T05:19:00;127.17;;;56.63;;
37903;SDS011;23738;50.422;18.758;2023-01-04T05:21:25;131.53;;;58.97;;
37903;SDS011;23738;50.422;18.758;2023-01-04T05:23:51;109.20;;;47.83;;
37903;SDS011;23738;50.422;18.758;2023-01-04T05:26:17;117.07;;;53.37;;
37903;SDS011;23738;50.422;18.758;2023-01-04T05:28:43;120.13;;;50.50;;
37903;SDS011;23738;50.422;18.758;2023-01-04T05:31:08;112.00;;;48.63;;
37903;SDS011;23738;50.422;18.758;2023-01-04T05:33:34;104.00;;;48.17;;
37903;SDS011;23738;50.422;18.758;2023-01-04T05:36:01;101.00;;;48.40;;
37903;SDS011;23738;50.422;18.758;2023-01-04T05:38:28;112.67;;;50.73;;
37903;SDS011;23738;50.422;18.758;2023-01-04T05:40:54;97.83;;;44.63;;
37903;SDS011;23738;50.422;18.758;2023-01-04T05:43:21;109.77;;;46.47;;
37903;SDS011;23738;50.422;18.758;2023-01-04T05:45:52;103.63;;;47.20;;
37903;SDS011;23738;50.422;18.758;2023-01-04T05:48:20;102.43;;;48.50;;
37903;SDS011;23738;50.422;18.758;2023-01-04T05:50:47;111.87;;;50.93;;
37903;SDS011;23738;50.422;18.758;2023-01-04T05:53:14;106.10;;;48.30;;
37903;SDS011;23738;50.422;18.758;2023-01-04T05:55:42;106.27;;;45.57;;
37903;SDS011;23738;50.422;18.758;2023-01-04T05:58:09;103.93;;;47.20;;
37903;SDS011;23738;50.422;18.758;2023-01-04T06:00:35;102.47;;;45.97;;
37903;SDS011;23738;50.422;18.758;2023-01-04T06:03:01;104.13;;;47.10;;
37903;SDS011;23738;50.422;18.758;2023-01-04T06:05:27;106.03;;;46.40;;
37903;SDS011;23738;50.422;18.758;2023-01-04T06:07:52;94.33;;;43.20;;
37903;SDS011;23738;50.422;18.758;2023-01-04T06:10:19;97.43;;;43.33;;
37903;SDS011;23738;50.422;18.758;2023-01-04T06:12:45;88.77;;;41.83;;
37903;SDS011;23738;50.422;18.758;2023-01-04T06:15:12;98.17;;;43.70;;
37903;SDS011;23738;50.422;18.758;2023-01-04T06:17:38;99.20;;;47.00;;
37903;SDS011;23738;50.422;18.758;2023-01-04T06:20:05;90.03;;;42.17;;
37903;SDS011;23738;50.422;18.758;2023-01-04T06:22:33;92.97;;;42.47;;
37903;SDS011;23738;50.422;18.758;2023-01-04T06:24:59;92.50;;;43.10;;
37903;SDS011;23738;50.422;18.758;2023-01-04T06:27:25;83.93;;;41.60;;
37903;SDS011;23738;50.422;18.758;2023-01-04T06:29:51;90.17;;;43.20;;
37903;SDS011;23738;50.422;18.758;2023-01-04T06:32:17;96.00;;;43.90;;
37903;SDS011;23738;50.422;18.758;2023-01-04T06:34:43;86.07;;;39.30;;
37903;SDS011;23738;50.422;18.758;2023-01-04T06:37:09;87.67;;;40.30;;
37903;SDS011;23738;50.422;18.758;2023-01-04T06:39:36;81.33;;;38.90;;
37903;SDS011;23738;50.422;18.758;2023-01-04T06:42:02;89.10;;;41.03;;
37903;SDS011;23738;50.422;18.758;2023-01-04T06:44:28;91.53;;;44.13;;
37903;SDS011;23738;50.422;18.758;2023-01-04T06:46:54;83.20;;;39.00;;
37903;SDS011;23738;50.422;18.758;2023-01-04T06:49:20;91.10;;;41.67;;
37903;SDS011;23738;50.422;18.758;2023-01-04T06:51:46;92.73;;;40.20;;
37903;SDS011;23738;50.422;18.758;2023-01-04T06:54:12;101.50;;;45.80;;
37903;SDS011;23738;50.422;18.758;2023-01-04T06:56:38;139.10;;;69.57;;
37903;SDS011;23738;50.422;18.758;2023-01-04T06:59:05;129.50;;;64.43;;
37903;SDS011;23738;50.422;18.758;2023-01-04T07:01:33;104.50;;;48.87;;
37903;SDS011;23738;50.422;18.758;2023-01-04T07:03:59;99.17;;;46.10;;
37903;SDS011;23738;50.422;18.758;2023-01-04T07:06:25;95.70;;;46.80;;
37903;SDS011;23738;50.422;18.758;2023-01-04T07:08:51;94.17;;;45.07;;
37903;SDS011;23738;50.422;18.758;2023-01-04T07:11:16;93.20;;;44.87;;
37903;SDS011;23738;50.422;18.758;2023-01-04T07:13:42;97.30;;;47.13;;
37903;SDS011;23738;50.422;18.758;2023-01-04T07:16:08;94.13;;;46.67;;
37903;SDS011;23738;50.422;18.758;2023-01-04T07:18:33;98.63;;;47.13;;
37903;SDS011;23738;50.422;18.758;2023-01-04T07:20:59;92.67;;;41.47;;
37903;SDS011;23738;50.422;18.758;2023-01-04T07:23:26;81.67;;;37.87;;
37903;SDS011;23738;50.422;18.758;2023-01-04T07:25:51;85.87;;;40.83;;
37903;SDS011;23738;50.422;18.758;2023-01-04T07:28:17;87.40;;;41.00;;
37903;SDS011;23738;50.422;18.758;2023-01-04T07:30:45;89.00;;;42.83;;
37903;SDS011;23738;50.422;18.758;2023-01-04T07:33:10;97.93;;;43.43;;
37903;SDS011;23738;50.422;18.758;2023-01-04T07:35:36;94.17;;;43.40;;
37903;SDS011;23738;50.422;18.758;2023-01-04T07:38:02;91.33;;;42.63;;
37903;SDS011;23738;50.422;18.758;2023-01-04T07:40:28;86.07;;;41.40;;
37903;SDS011;23738;50.422;18.758;2023-01-04T07:42:58;107.10;;;45.90;;
37903;SDS011;23738;50.422;18.758;2023-01-04T07:45:24;114.97;;;50.57;;
37903;SDS011;23738;50.422;18.758;2023-01-04T07:47:50;122.87;;;52.50;;
37903;SDS011;23738;50.422;18.758;2023-01-04T07:50:16;120.53;;;50.53;;
37903;SDS011;23738;50.422;18.758;2023-01-04T07:52:42;108.23;;;47.87;;
37903;SDS011;23738;50.422;18.758;2023-01-04T07:55:08;105.83;;;45.30;;
37903;SDS011;23738;50.422;18.758;2023-01-04T07:57:34;91.63;;;44.10;;
37903;SDS011;23738;50.422;18.758;2023-01-04T08:00:00;94.20;;;46.20;;
37903;SDS011;23738;50.422;18.758;2023-01-04T08:02:26;104.67;;;48.10;;
37903;SDS011;23738;50.422;18.758;2023-01-04T08:04:52;91.27;;;42.60;;
37903;SDS011;23738;50.422;18.758;2023-01-04T08:07:20;92.60;;;42.47;;
37903;SDS011;23738;50.422;18.758;2023-01-04T08:09:46;90.53;;;41.53;;
37903;SDS011;23738;50.422;18.758;2023-01-04T08:12:12;81.13;;;39.63;;
37903;SDS011;23738;50.422;18.758;2023-01-04T08:14:37;89.53;;;42.53;;
37903;SDS011;23738;50.422;18.758;2023-01-04T08:17:03;89.87;;;44.17;;
37903;SDS011;23738;50.422;18.758;2023-01-04T08:19:29;80.83;;;41.73;;
37903;SDS011;23738;50.422;18.758;2023-01-04T08:21:55;75.87;;;38.70;;
37903;SDS011;23738;50.422;18.758;2023-01-04T08:24:20;71.67;;;35.13;;
37903;SDS011;23738;50.422;18.758;2023-01-04T08:26:46;69.83;;;33.87;;
37903;SDS011;23738;50.422;18.758;2023-01-04T08:29:12;67.03;;;33.40;;
37903;SDS011;23738;50.422;18.758;2023-01-04T08:31:38;74.67;;;36.70;;
37903;SDS011;23738;50.422;18.758;2023-01-04T08:34:05;68.33;;;34.53;;
37903;SDS011;23738;50.422;18.758;2023-01-04T08:36:46;74.17;;;35.10;;
37903;SDS011;23738;50.422;18.758;2023-01-04T08:39:14;98.03;;;39.67;;
37903;SDS011;23738;50.422;18.758;2023-01-04T08:41:41;70.77;;;35.50;;
37903;SDS011;23738;50.422;18.758;2023-01-04T08:44:17;64.85;;;31.10;;
37903;SDS011;23738;50.422;18.758;2023-01-04T08:46:45;53.77;;;27.67;;
37903;SDS011;23738;50.422;18.758;2023-01-04T08:49:12;58.53;;;31.73;;
37903;SDS011;23738;50.422;18.758;2023-01-04T08:51:38;54.33;;;28.47;;
37903;SDS011;23738;50.422;18.758;2023-01-04T08:54:05;58.47;;;30.73;;
37903;SDS011;23738;50.422;18.758;2023-01-04T08:56:31;58.33;;;27.67;;
37903;SDS011;23738;50.422;18.758;2023-01-04T08:58:57;50.50;;;27.17;;
37903;SDS011;23738;50.422;18.758;2023-01-04T09:01:22;42.87;;;23.83;;
37903;SDS011;23738;50.422;18.758;2023-01-04T09:03:48;46.23;;;24.47;;
37903;SDS011;23738;50.422;18.758;2023-01-04T09:06:14;53.40;;;28.00;;
37903;SDS011;23738;50.422;18.758;2023-01-04T09:08:40;51.10;;;28.27;;
37903;SDS011;23738;50.422;18.758;2023-01-04T09:11:09;51.67;;;28.77;;
37903;SDS011;23738;50.422;18.758;2023-01-04T09:13:38;47.47;;;24.27;;
37903;SDS011;23738;50.422;18.758;2023-01-04T09:16:05;47.03;;;24.13;;
37903;SDS011;23738;50.422;18.758;2023-01-04T09:18:34;43.03;;;22.17;;
37903;SDS011;23738;50.422;18.758;2023-01-04T09:21:07;51.63;;;26.33;;
37903;SDS011;23738;50.422;18.758;2023-01-04T09:23:35;50.45;;;27.25;;
37903;SDS011;23738;50.422;18.758;2023-01-04T09:26:05;49.80;;;26.40;;
37903;SDS011;23738;50.422;18.758;2023-01-04T09:28:33;46.87;;;23.43;;
37903;SDS011;23738;50.422;18.758;2023-01-04T09:31:03;38.93;;;20.93;;
37903;SDS011;23738;50.422;18.758;2023-01-04T09:33:31;37.00;;;18.07;;
37903;SDS011;23738;50.422;18.758;2023-01-04T09:35:59;28.87;;;17.37;;
37903;SDS011;23738;50.422;18.758;2023-01-04T09:38:29;26.63;;;17.07;;
37903;SDS011;23738;50.422;18.758;2023-01-04T09:41:39;30.47;;;18.07;;
37903;SDS011;23738;50.422;18.758;2023-01-04T09:43:45;29.50;;;15.97;;
37903;SDS011;23738;50.422;18.758;2023-01-04T09:46:16;26.73;;;15.20;;
37903;SDS011;23738;50.422;18.758;2023-01-04T09:48:48;20.83;;;13.37;;
37903;SDS011;23738;50.422;18.758;2023-01-04T09:51:20;22.00;;;14.37;;
37903;SDS011;23738;50.422;18.758;2023-01-04T09:53:56;19.93;;;12.77;;
37903;SDS011;23738;50.422;18.758;2023-01-04T09:56:35;21.50;;;14.63;;
37903;SDS011;23738;50.422;18.758;2023-01-04T09:59:04;21.73;;;15.23;;
37903;SDS011;23738;50.422;18.758;2023-01-04T10:01:41;26.83;;;17.40;;
37903;SDS011;23738;50.422;18.758;2023-01-04T10:06:52;18.93;;;12.73;;
37903;SDS011;23738;50.422;18.758;2023-01-04T10:09:19;20.67;;;15.53;;
37903;SDS011;23738;50.422;18.758;2023-01-04T10:14:44;20.37;;;14.90;;
37903;SDS011;23738;50.422;18.758;2023-01-04T10:23:32;20.47;;;15.60;;
37903;SDS011;23738;50.422;18.758;2023-01-04T10:26:13;20.50;;;15.83;;
37903;SDS011;23738;50.422;18.758;2023-01-04T10:31:46;17.67;;;13.23;;
37903;SDS011;23738;50.422;18.758;2023-01-04T10:34:23;14.40;;;11.13;;
37903;SDS011;23738;50.422;18.758;2023-01-04T10:37:00;13.83;;;9.77;;
37903;SDS011;23738;50.422;18.758;2023-01-04T10:39:56;10.15;;;8.95;;
37903;SDS011;23738;50.422;18.758;2023-01-04T10:45:04;17.80;;;13.80;;
37903;SDS011;23738;50.422;18.758;2023-01-04T10:50:57;15.73;;;12.13;;
37903;SDS011;23738;50.422;18.758;2023-01-04T10:53:28;19.77;;;11.57;;
37903;SDS011;23738;50.422;18.758;2023-01-04T10:56:02;15.57;;;12.50;;
37903;SDS011;23738;50.422;18.758;2023-01-04T11:01:43;17.65;;;12.88;;
37903;SDS011;23738;50.422;18.758;2023-01-04T11:04:27;17.77;;;13.57;;
37903;SDS011;23738;50.422;18.758;2023-01-04T11:07:15;18.60;;;11.57;;
37903;SDS011;23738;50.422;18.758;2023-01-04T11:09:54;16.63;;;12.73;;
37903;SDS011;23738;50.422;18.758;2023-01-04T11:12:36;21.10;;;15.00;;
37903;SDS011;23738;50.422;18.758;2023-01-04T11:15:02;24.23;;;14.57;;
37903;SDS011;23738;50.422;18.758;2023-01-04T11:17:29;25.70;;;15.07;;
37903;SDS011;23738;50.422;18.758;2023-01-04T11:19:56;24.47;;;15.73;;
37903;SDS011;23738;50.422;18.758;2023-01-04T11:22:37;26.23;;;13.00;;
37903;SDS011;23738;50.422;18.758;2023-01-04T11:25:14;31.17;;;16.20;;
37903;SDS011;23738;50.422;18.758;2023-01-04T11:27:43;26.17;;;17.43;;
37903;SDS011;23738;50.422;18.758;2023-01-04T11:30:14;43.27;;;23.33;;
37903;SDS011;23738;50.422;18.758;2023-01-04T11:32:53;36.90;;;21.17;;
37903;SDS011;23738;50.422;18.758;2023-01-04T11:35:46;34.23;;;19.93;;
37903;SDS011;23738;50.422;18.758;2023-01-04T11:38:21;27.27;;;15.60;;
37903;SDS011;23738;50.422;18.758;2023-01-04T11:43:34;16.07;;;10.77;;
37903;SDS011;23738;50.422;18.758;2023-01-04T11:46:01;18.70;;;11.87;;
37903;SDS011;23738;50.422;18.758;2023-01-04T11:48:49;14.73;;;10.00;;
37903;SDS011;23738;50.422;18.758;2023-01-04T11:54:09;10.97;;;8.23;;
37903;SDS011;23738;50.422;18.758;2023-01-04T11:56:56;8.50;;;7.53;;
37903;SDS011;23738;50.422;18.758;2023-01-04T11:59:35;8.60;;;7.67;;
37903;SDS011;23738;50.422;18.758;2023-01-04T12:02:18;10.27;;;7.30;;
37903;SDS011;23738;50.422;18.758;2023-01-04T12:04:50;9.40;;;6.47;;
37903;SDS011;23738;50.422;18.758;2023-01-04T12:07:30;12.27;;;6.67;;
37903;SDS011;23738;50.422;18.758;2023-01-04T12:09:59;8.23;;;6.20;;
37903;SDS011;23738;50.422;18.758;2023-01-04T12:12:30;8.33;;;6.17;;
37903;SDS011;23738;50.422;18.758;2023-01-04T12:15:06;6.47;;;5.37;;
37903;SDS011;23738;50.422;18.758;2023-01-04T12:17:46;6.90;;;6.20;;
37903;SDS011;23738;50.422;18.758;2023-01-04T12:20:17;6.97;;;5.30;;
37903;SDS011;23738;50.422;18.758;2023-01-04T12:22:44;9.70;;;5.50;;
37903;SDS011;23738;50.422;18.758;2023-01-04T12:30:33;9.33;;;6.08;;
37903;SDS011;23738;50.422;18.758;2023-01-04T12:36:18;7.23;;;5.90;;
37903;SDS011;23738;50.422;18.758;2023-01-04T12:50:07;7.53;;;6.27;;
37903;SDS011;23738;50.422;18.758;2023-01-04T12:52:47;7.40;;;5.60;;
37903;SDS011;23738;50.422;18.758;2023-01-04T12:57:53;14.47;;;9.27;;
37903;SDS011;23738;50.422;18.758;2023-01-04T13:00:19;7.33;;;5.87;;
37903;SDS011;23738;50.422;18.758;2023-01-04T13:02:45;8.60;;;5.40;;
37903;SDS011;23738;50.422;18.758;2023-01-04T13:05:44;6.42;;;5.28;;
37903;SDS011;23738;50.422;18.758;2023-01-04T13:08:21;8.23;;;5.80;;
37903;SDS011;23738;50.422;18.758;2023-01-04T13:10:48;7.57;;;6.53;;
37903;SDS011;23738;50.422;18.758;2023-01-04T13:16:32;7.20;;;5.90;;
37903;SDS011;23738;50.422;18.758;2023-01-04T13:19:20;8.03;;;6.07;;
37903;SDS011;23738;50.422;18.758;2023-01-04T13:21:50;6.27;;;5.63;;
37903;SDS011;23738;50.422;18.758;2023-01-04T13:24:30;7.10;;;6.10;;
37903;SDS011;23738;50.422;18.758;2023-01-04T13:27:07;6.83;;;6.13;;
37903;SDS011;23738;50.422;18.758;2023-01-04T13:29:39;9.20;;;7.37;;
37903;SDS011;23738;50.422;18.758;2023-01-04T13:32:14;10.33;;;6.43;;
37903;SDS011;23738;50.422;18.758;2023-01-04T13:34:55;8.20;;;6.40;;
37903;SDS011;23738;50.422;18.758;2023-01-04T13:37:30;9.30;;;7.30;;
37903;SDS011;23738;50.422;18.758;2023-01-04T13:40:00;9.98;;;6.72;;
37903;SDS011;23738;50.422;18.758;2023-01-04T13:42:32;10.00;;;7.23;;
37903;SDS011;23738;50.422;18.758;2023-01-04T13:47:54;7.87;;;6.33;;
37903;SDS011;23738;50.422;18.758;2023-01-04T13:50:38;9.20;;;7.00;;
37903;SDS011;23738;50.422;18.758;2023-01-04T13:53:15;13.77;;;6.80;;
37903;SDS011;23738;50.422;18.758;2023-01-04T13:55:48;9.47;;;7.23;;
37903;SDS011;23738;50.422;18.758;2023-01-04T13:58:16;11.40;;;7.97;;
37903;SDS011;23738;50.422;18.758;2023-01-04T14:00:47;8.83;;;7.97;;
37903;SDS011;23738;50.422;18.758;2023-01-04T14:03:33;9.27;;;8.33;;
37903;SDS011;23738;50.422;18.758;2023-01-04T14:06:10;10.67;;;8.17;;
37903;SDS011;23738;50.422;18.758;2023-01-04T14:08:38;9.97;;;7.93;;
37903;SDS011;23738;50.422;18.758;2023-01-04T14:14:31;9.33;;;7.77;;
37903;SDS011;23738;50.422;18.758;2023-01-04T14:17:05;8.30;;;7.50;;
37903;SDS011;23738;50.422;18.758;2023-01-04T14:19:47;7.70;;;6.30;;
37903;SDS011;23738;50.422;18.758;2023-01-04T14:22:25;9.73;;;7.87;;
37903;SDS011;23738;50.422;18.758;2023-01-04T14:24:56;15.33;;;10.33;;
37903;SDS011;23738;50.422;18.758;2023-01-04T14:35:27;10.80;;;7.70;;
37903;SDS011;23738;50.422;18.758;2023-01-04T14:37:54;9.03;;;6.60;;
37903;SDS011;23738;50.422;18.758;2023-01-04T14:40:27;6.70;;;6.07;;
37903;SDS011;23738;50.422;18.758;2023-01-04T14:42:59;6.43;;;5.70;;
37903;SDS011;23738;50.422;18.758;2023-01-04T14:45:25;8.00;;;6.97;;
37903;SDS011;23738;50.422;18.758;2023-01-04T14:47:51;8.33;;;6.50;;
37903;SDS011;23738;50.422;18.758;2023-01-04T14:50:17;10.63;;;9.00;;
37903;SDS011;23738;50.422;18.758;2023-01-04T14:52:52;9.43;;;8.43;;
37903;SDS011;23738;50.422;18.758;2023-01-04T16:28:42;10.60;;;9.50;;
37903;SDS011;23738;50.422;18.758;2023-01-04T16:31:07;11.30;;;10.13;;
37903;SDS011;23738;50.422;18.758;2023-01-04T16:33:34;13.67;;;11.23;;
37903;SDS011;23738;50.422;18.758;2023-01-04T16:36:02;11.23;;;9.63;;
37903;SDS011;23738;50.422;18.758;2023-01-04T16:38:31;10.40;;;9.13;;
37903;SDS011;23738;50.422;18.758;2023-01-04T16:41:04;12.50;;;10.53;;
37903;SDS011;23738;50.422;18.758;2023-01-04T16:43:31;11.20;;;9.40;;
37903;SDS011;23738;50.422;18.758;2023-01-04T16:48:56;8.70;;;7.87;;
37903;SDS011;23738;50.422;18.758;2023-01-04T16:51:25;11.37;;;10.27;;
37903;SDS011;23738;50.422;18.758;2023-01-04T16:53:52;11.17;;;9.40;;
37903;SDS011;23738;50.422;18.758;2023-01-04T16:56:20;10.37;;;9.00;;
37903;SDS011;23738;50.422;18.758;2023-01-04T16:58:48;11.40;;;9.37;;
37903;SDS011;23738;50.422;18.758;2023-01-04T17:01:29;15.47;;;9.67;;
37903;SDS011;23738;50.422;18.758;2023-01-04T17:03:55;13.50;;;10.53;;
37903;SDS011;23738;50.422;18.758;2023-01-04T17:06:29;12.20;;;9.43;;
37903;SDS011;23738;50.422;18.758;2023-01-04T17:08:55;10.33;;;9.23;;
37903;SDS011;23738;50.422;18.758;2023-01-04T17:11:23;11.10;;;9.17;;
37903;SDS011;23738;50.422;18.758;2023-01-04T17:13:52;9.43;;;8.43;;
37903;SDS011;23738;50.422;18.758;2023-01-04T17:16:18;10.67;;;8.77;;
37903;SDS011;23738;50.422;18.758;2023-01-04T17:18:45;11.30;;;9.10;;
37903;SDS011;23738;50.422;18.758;2023-01-04T17:21:14;11.80;;;8.73;;
37903;SDS011;23738;50.422;18.758;2023-01-04T17:23:43;13.67;;;8.87;;
37903;SDS011;23738;50.422;18.758;2023-01-04T17:26:15;8.70;;;7.23;;
37903;SDS011;23738;50.422;18.758;2023-01-04T17:28:46;9.43;;;7.72;;
37903;SDS011;23738;50.422;18.758;2023-01-04T17:31:14;13.40;;;9.30;;
37903;SDS011;23738;50.422;18.758;2023-01-04T17:33:45;11.13;;;7.87;;
37903;SDS011;23738;50.422;18.758;2023-01-04T17:36:12;9.70;;;7.73;;
37903;SDS011;23738;50.422;18.758;2023-01-04T17:38:41;9.70;;;7.67;;
37903;SDS011;23738;50.422;18.758;2023-01-04T17:41:12;23.73;;;12.57;;
37903;SDS011;23738;50.422;18.758;2023-01-04T17:43:41;20.77;;;11.10;;
37903;SDS011;23738;50.422;18.758;2023-01-04T17:46:09;21.27;;;11.00;;
37903;SDS011;23738;50.422;18.758;2023-01-04T17:48:38;23.30;;;11.83;;
37903;SDS011;23738;50.422;18.758;2023-01-04T17:51:15;11.90;;;8.00;;
37903;SDS011;23738;50.422;18.758;2023-01-04T17:53:46;12.20;;;7.40;;
37903;SDS011;23738;50.422;18.758;2023-01-04T17:56:16;9.50;;;6.20;;
37903;SDS011;23738;50.422;18.758;2023-01-04T17:58:44;8.37;;;7.40;;